createdAt,value
2022-11-02T00:01:21.484Z,9.77
2022-11-02T00:03:48.489Z,8.63
2022-11-02T00:06:15.042Z,9.30
2022-11-02T00:08:41.626Z,8.80
2022-11-02T00:11:08.533Z,9.43
2022-11-02T00:13:35.078Z,7.93
2022-11-02T00:16:08.273Z,8.15
2022-11-02T00:18:35.660Z,9.27
2022-11-02T00:21:02.976Z,8.85
2022-11-02T00:23:30.344Z,8.27
2022-11-02T00:26:00.676Z,9.45
2022-11-02T00:28:28.978Z,8.98
2022-11-02T00:30:55.371Z,7.88
2022-11-02T00:33:21.823Z,9.25
2022-11-02T00:35:48.408Z,8.60
2022-11-02T00:38:14.910Z,8.70
2022-11-02T00:40:41.335Z,8.05
2022-11-02T00:43:07.868Z,7.32
2022-11-02T00:45:34.587Z,8.05
2022-11-02T00:48:01.767Z,7.30
2022-11-02T00:50:28.467Z,7.35
2022-11-02T00:52:54.864Z,7.90
2022-11-02T00:55:21.591Z,7.63
2022-11-02T00:57:48.254Z,7.32
2022-11-02T01:00:15.454Z,7.60
2022-11-02T01:02:42.327Z,7.55
2022-11-02T01:05:10.615Z,6.70
2022-11-02T01:07:37.604Z,7.18
2022-11-02T01:10:06.035Z,7.38
2022-11-02T01:12:32.463Z,6.82
2022-11-02T01:14:59.157Z,7.25
2022-11-02T01:17:25.598Z,7.38
2022-11-02T01:19:51.990Z,7.47
2022-11-02T01:22:18.505Z,6.95
2022-11-02T01:24:44.969Z,7.40
2022-11-02T01:27:11.406Z,7.35
2022-11-02T01:29:37.785Z,6.88
2022-11-02T01:32:04.418Z,6.45
2022-11-02T01:34:30.930Z,6.63
2022-11-02T01:36:57.314Z,6.85
2022-11-02T01:39:23.757Z,6.40
2022-11-02T01:41:53.824Z,5.97
2022-11-02T01:44:32.019Z,6.15
2022-11-02T01:47:12.756Z,6.00
2022-11-02T01:49:43.178Z,6.63
2022-11-02T01:52:20.013Z,5.78
2022-11-02T01:55:03.772Z,5.38
2022-11-02T01:57:33.411Z,5.95
2022-11-02T02:00:03.861Z,5.05
2022-11-02T02:02:30.410Z,5.30
2022-11-02T02:08:50.793Z,5.32
2022-11-02T02:11:33.976Z,4.80
2022-11-02T02:14:14.751Z,5.40
2022-11-02T02:16:59.619Z,4.90
2022-11-02T02:19:33.116Z,5.05
2022-11-02T02:22:05.152Z,4.78
2022-11-02T02:24:37.351Z,5.15
2022-11-02T02:27:09.531Z,5.07
2022-11-02T02:29:47.704Z,4.40
2022-11-02T02:32:36.349Z,4.50
2022-11-02T02:35:13.828Z,4.32
2022-11-02T02:37:49.337Z,4.40
2022-11-02T02:40:23.130Z,4.10
2022-11-02T02:43:08.489Z,4.07
2022-11-02T02:45:38.189Z,3.97
2022-11-02T02:48:20.948Z,4.18
2022-11-02T02:50:53.150Z,3.50
2022-11-02T02:53:23.638Z,4.63
2022-11-02T02:55:51.004Z,3.95
2022-11-02T02:58:22.872Z,4.03
2022-11-02T03:00:49.606Z,5.10
2022-11-02T03:03:19.122Z,4.22
2022-11-02T03:05:56.846Z,4.10
2022-11-02T03:08:24.017Z,3.65
2022-11-02T03:10:58.024Z,3.70
2022-11-02T03:13:33.381Z,3.40
2022-11-02T03:16:23.896Z,3.15
2022-11-02T03:19:19.606Z,3.60
2022-11-02T03:21:53.839Z,3.85
2022-11-02T03:24:30.351Z,3.33
2022-11-02T03:27:37.374Z,3.60
2022-11-02T03:30:12.003Z,3.28
2022-11-02T03:32:45.026Z,4.07
2022-11-02T03:35:28.756Z,3.47
2022-11-02T03:38:32.775Z,3.13
2022-11-02T03:41:01.366Z,3.05
2022-11-02T03:43:28.945Z,3.40
2022-11-02T03:46:00.937Z,4.00
2022-11-02T03:48:32.276Z,3.20
2022-11-02T03:51:03.945Z,3.42
2022-11-02T03:56:21.294Z,4.30
2022-11-02T03:58:47.729Z,3.67
2022-11-02T04:01:16.832Z,4.20
2022-11-02T04:03:46.005Z,3.42
2022-11-02T04:06:12.952Z,3.58
2022-11-02T04:08:42.281Z,4.13
2022-11-02T04:11:27.710Z,3.58
2022-11-02T04:14:12.829Z,3.67
2022-11-02T04:16:39.768Z,3.83
2022-11-02T04:19:24.934Z,3.58
2022-11-02T04:22:10.148Z,4.13
2022-11-02T04:24:54.820Z,3.30
2022-11-02T04:27:21.507Z,3.38
2022-11-02T04:29:48.316Z,3.60
2022-11-02T04:32:14.706Z,3.65
2022-11-02T04:34:41.104Z,3.33
2022-11-02T04:37:27.481Z,3.38
2022-11-02T04:39:53.963Z,3.40
2022-11-02T04:42:20.327Z,3.42
2022-11-02T04:44:46.752Z,3.42
2022-11-02T04:47:13.174Z,3.08
2022-11-02T04:49:39.628Z,3.28
2022-11-02T04:52:06.035Z,3.25
2022-11-02T04:54:32.432Z,3.40
2022-11-02T04:56:58.871Z,3.15
2022-11-02T04:59:25.286Z,3.17
2022-11-02T05:01:51.807Z,3.25
2022-11-02T05:04:18.311Z,3.10
2022-11-02T05:06:44.744Z,2.55
2022-11-02T05:09:11.215Z,3.00
2022-11-02T05:11:37.633Z,3.13
2022-11-02T05:14:04.243Z,2.83
2022-11-02T05:16:30.863Z,3.67
2022-11-02T05:18:57.462Z,3.00
2022-11-02T05:21:24.003Z,3.03
2022-11-02T05:23:50.426Z,2.83
2022-11-02T05:26:16.840Z,2.80
2022-11-02T05:28:43.272Z,3.30
2022-11-02T05:31:09.709Z,2.80
2022-11-02T05:33:36.585Z,4.45
2022-11-02T05:36:03.519Z,2.67
2022-11-02T05:38:30.192Z,2.78
2022-11-02T05:40:58.592Z,3.03
2022-11-02T05:43:25.823Z,3.25
2022-11-02T05:45:57.048Z,2.90
2022-11-02T05:48:24.392Z,3.05
2022-11-02T05:50:55.819Z,3.60
2022-11-02T05:53:22.396Z,3.70
2022-11-02T05:55:48.923Z,3.10
2022-11-02T05:58:15.391Z,3.75
2022-11-02T06:00:41.824Z,4.43
2022-11-02T06:03:08.245Z,3.92
2022-11-02T06:05:35.095Z,3.50
2022-11-02T06:08:02.537Z,3.25
2022-11-02T06:10:30.732Z,2.88
2022-11-02T06:12:59.423Z,3.00
2022-11-02T06:15:26.734Z,3.15
2022-11-02T06:17:53.323Z,3.15
2022-11-02T06:20:20.794Z,2.92
2022-11-02T06:22:47.469Z,3.08
2022-11-02T06:25:14.463Z,2.80
2022-11-02T06:27:45.827Z,3.08
2022-11-02T06:32:39.028Z,2.95
2022-11-02T06:35:06.071Z,3.25
2022-11-02T06:37:34.436Z,3.55
2022-11-02T06:40:00.916Z,2.97
2022-11-02T06:42:27.488Z,3.38
2022-11-02T06:44:53.959Z,3.50
2022-11-02T06:47:20.388Z,3.20
2022-11-02T06:49:46.801Z,3.03
2022-11-02T06:52:13.573Z,3.22
2022-11-02T06:54:40.021Z,3.85
2022-11-02T06:57:06.940Z,4.25
2022-11-02T06:59:33.862Z,3.80
2022-11-02T07:02:00.431Z,4.30
2022-11-02T07:04:27.122Z,4.13
2022-11-02T07:06:53.683Z,3.70
2022-11-02T07:09:20.236Z,4.43
2022-11-02T07:11:46.932Z,3.80
2022-11-02T07:14:13.633Z,3.17
2022-11-02T07:16:40.488Z,3.60
2022-11-02T07:19:07.066Z,3.83
2022-11-02T07:21:33.741Z,3.58
2022-11-02T07:24:00.414Z,4.15
2022-11-02T07:26:27.228Z,5.88
2022-11-02T07:28:58.259Z,4.38
2022-11-02T07:31:24.892Z,5.15
2022-11-02T07:33:51.314Z,3.50
2022-11-02T07:36:17.909Z,3.67
2022-11-02T07:38:44.368Z,4.15
2022-11-02T07:41:10.931Z,3.33
2022-11-02T07:43:41.297Z,3.85
2022-11-02T07:46:11.661Z,3.78
2022-11-02T07:48:38.433Z,3.28
2022-11-02T07:51:07.242Z,2.88
2022-11-02T07:53:34.371Z,3.03
2022-11-02T07:56:01.463Z,3.63
2022-11-02T07:58:27.929Z,2.72
2022-11-02T08:01:01.028Z,3.15
2022-11-02T08:03:28.652Z,3.17
2022-11-02T08:05:55.517Z,2.67
2022-11-02T08:08:24.573Z,2.78
2022-11-02T08:10:52.525Z,2.85
2022-11-02T08:13:22.200Z,2.88
2022-11-02T08:15:50.865Z,2.95
2022-11-02T08:18:20.052Z,2.83
2022-11-02T08:20:47.851Z,3.28
2022-11-02T08:23:19.419Z,3.53
2022-11-02T08:25:47.808Z,2.92
2022-11-02T08:28:23.994Z,3.53
2022-11-02T08:30:50.738Z,3.47
2022-11-02T08:33:19.241Z,2.65
2022-11-02T08:35:46.930Z,2.90
2022-11-02T08:38:13.945Z,2.88
2022-11-02T08:40:41.106Z,2.95
2022-11-02T08:43:10.651Z,3.10
2022-11-02T08:46:12.594Z,2.80
2022-11-02T08:48:25.875Z,2.40
2022-11-02T08:50:52.589Z,3.58
2022-11-02T08:53:19.047Z,3.60
2022-11-02T08:55:45.449Z,3.00
2022-11-02T08:58:11.863Z,3.28
2022-11-02T09:00:38.335Z,4.85
2022-11-02T09:03:08.135Z,3.30
2022-11-02T09:05:37.889Z,2.70
2022-11-02T09:08:06.868Z,2.90
2022-11-02T09:10:35.708Z,2.63
2022-11-02T09:13:04.274Z,3.17
2022-11-02T09:15:33.704Z,2.30
2022-11-02T09:18:00.192Z,3.10
2022-11-02T09:20:26.669Z,2.78
2022-11-02T09:22:53.208Z,2.95
2022-11-02T09:25:19.781Z,2.65
2022-11-02T09:27:47.225Z,2.63
2022-11-02T09:30:15.805Z,1.98
2022-11-02T09:32:42.348Z,2.63
2022-11-02T09:35:11.867Z,2.50
2022-11-02T09:37:38.556Z,2.28
2022-11-02T09:40:06.270Z,3.08
2022-11-02T09:42:43.773Z,2.80
2022-11-02T09:45:16.840Z,2.97
2022-11-02T09:48:26.817Z,2.38
2022-11-02T09:50:59.291Z,2.67
2022-11-02T09:53:40.811Z,3.22
2022-11-02T09:56:08.961Z,2.53
2022-11-02T09:58:39.485Z,2.20
2022-11-02T10:01:28.473Z,2.90
2022-11-02T10:03:54.824Z,5.15
2022-11-02T10:06:25.595Z,3.13
2022-11-02T10:08:57.938Z,3.33
2022-11-02T10:12:03.971Z,2.85
2022-11-02T10:14:35.346Z,2.85
2022-11-02T10:17:13.186Z,3.70
2022-11-02T10:19:41.990Z,2.90
2022-11-02T10:22:13.016Z,2.83
2022-11-02T10:24:43.415Z,2.80
2022-11-02T10:27:29.450Z,3.00
2022-11-02T10:30:03.288Z,3.22
2022-11-02T10:32:32.283Z,2.30
2022-11-02T10:35:17.637Z,2.80
2022-11-02T10:38:03.249Z,3.40
2022-11-02T10:40:54.631Z,5.05
2022-11-02T10:43:58.954Z,3.97
2022-11-02T10:46:42.256Z,2.85
2022-11-02T10:49:48.972Z,2.85
2022-11-02T10:52:17.495Z,2.28
2022-11-02T10:54:44.235Z,2.33
2022-11-02T10:57:12.975Z,3.22
2022-11-02T10:59:39.972Z,3.05
2022-11-02T11:02:14.867Z,2.60
2022-11-02T11:04:42.616Z,2.78
2022-11-02T11:07:26.432Z,2.20
2022-11-02T11:09:57.463Z,2.78
2022-11-02T11:12:31.903Z,2.83
2022-11-02T11:20:39.527Z,2.53
2022-11-02T11:23:15.782Z,3.85
2022-11-02T11:25:42.938Z,3.15
2022-11-02T11:28:53.040Z,3.03
2022-11-02T11:31:19.942Z,2.42
2022-11-02T11:33:52.331Z,2.97
2022-11-02T11:36:45.029Z,2.42
2022-11-02T11:39:28.143Z,2.47
2022-11-02T11:41:55.265Z,3.15
2022-11-02T11:47:11.790Z,2.80
2022-11-02T11:50:09.928Z,2.50
2022-11-02T11:52:34.773Z,2.58
2022-11-02T11:55:18.823Z,2.75
2022-11-02T11:57:45.465Z,2.67
2022-11-02T12:00:27.606Z,3.50
2022-11-02T12:03:13.686Z,3.08
2022-11-02T12:06:07.529Z,2.83
2022-11-02T12:08:42.590Z,2.38
2022-11-02T12:11:55.515Z,2.20
2022-11-02T12:14:40.756Z,2.83
2022-11-02T12:17:19.494Z,3.15
2022-11-02T12:20:17.266Z,2.85
2022-11-02T12:23:05.660Z,2.42
2022-11-02T12:26:05.906Z,2.28
2022-11-02T12:29:04.349Z,2.17
2022-11-02T12:31:38.548Z,2.60
2022-11-02T12:34:21.896Z,1.98
2022-11-02T12:37:37.188Z,2.22
2022-11-02T12:40:33.086Z,2.63
2022-11-02T12:43:08.440Z,2.17
2022-11-02T12:46:00.124Z,2.05
2022-11-02T12:48:42.324Z,1.98
2022-11-02T12:51:18.069Z,2.08
2022-11-02T12:53:54.250Z,2.47
2022-11-02T12:56:25.282Z,2.08
2022-11-02T12:58:52.050Z,1.95
2022-11-02T13:01:35.261Z,2.83
2022-11-02T13:04:14.620Z,2.00
2022-11-02T13:06:50.198Z,2.05
2022-11-02T13:09:24.512Z,2.05
2022-11-02T13:12:02.304Z,2.25
2022-11-02T13:14:40.820Z,1.67
2022-11-02T13:17:25.279Z,2.00
2022-11-02T13:20:12.438Z,1.98
2022-11-02T13:22:41.094Z,1.80
2022-11-02T13:25:16.371Z,1.70
2022-11-02T13:27:50.011Z,1.67
2022-11-02T13:30:18.228Z,2.08
2022-11-02T13:32:50.220Z,2.15
2022-11-02T13:35:23.881Z,2.35
2022-11-02T13:38:02.073Z,2.08
2022-11-02T13:40:36.521Z,2.22
2022-11-02T13:43:27.170Z,1.63
2022-11-02T13:45:59.323Z,1.60
2022-11-02T13:48:39.870Z,2.00
2022-11-02T13:51:13.654Z,2.45
2022-11-02T13:53:49.060Z,2.75
2022-11-02T13:56:24.311Z,1.98
2022-11-02T13:58:57.962Z,2.08
2022-11-02T14:01:25.539Z,1.90
2022-11-02T14:04:04.128Z,3.35
2022-11-02T14:06:34.491Z,2.30
2022-11-02T14:09:18.805Z,2.00
2022-11-02T14:11:48.277Z,2.17
2022-11-02T14:14:23.315Z,1.85
2022-11-02T14:16:49.775Z,3.00
2022-11-02T14:19:19.563Z,3.38
2022-11-02T14:21:49.774Z,2.08
2022-11-02T14:24:36.410Z,2.00
2022-11-02T14:27:11.833Z,2.40
2022-11-02T14:29:47.199Z,1.63
2022-11-02T14:32:23.958Z,2.22
2022-11-02T14:35:12.072Z,2.05
2022-11-02T14:37:49.797Z,2.08
2022-11-02T14:40:51.427Z,2.17
2022-11-02T14:43:36.115Z,2.25
2022-11-02T14:46:10.240Z,2.33
2022-11-02T14:48:54.947Z,2.13
2022-11-02T14:51:27.856Z,2.30
2022-11-02T14:53:58.782Z,2.67
2022-11-02T14:56:45.223Z,1.88
2022-11-02T14:59:22.550Z,2.95
2022-11-02T15:02:04.387Z,2.40
2022-11-02T15:07:02.460Z,2.13
2022-11-02T15:09:50.659Z,2.10
2022-11-02T15:12:31.994Z,1.73
2022-11-02T15:15:02.715Z,1.92
2022-11-02T15:17:29.067Z,4.47
2022-11-02T15:19:58.581Z,2.15
2022-11-02T15:22:47.517Z,2.13
2022-11-02T15:25:20.383Z,1.77
2022-11-02T15:27:51.274Z,2.60
2022-11-02T15:30:25.296Z,2.28
2022-11-02T15:33:01.900Z,2.03
2022-11-02T15:35:37.607Z,2.05
2022-11-02T15:38:30.395Z,2.25
2022-11-02T15:41:06.404Z,2.03
2022-11-02T15:49:13.601Z,1.73
2022-11-02T15:51:43.078Z,2.72
2022-11-02T16:04:54.807Z,2.67
2022-11-02T16:07:29.173Z,2.20
2022-11-02T16:10:24.413Z,2.20
2022-11-02T16:18:22.396Z,2.45
2022-11-02T16:20:48.976Z,2.10
2022-11-02T16:23:24.872Z,1.63
2022-11-02T16:25:54.412Z,2.90
2022-11-02T16:28:28.914Z,2.00
2022-11-02T16:31:19.248Z,2.83
2022-11-02T16:33:53.027Z,2.30
2022-11-02T16:36:31.168Z,3.58
2022-11-02T16:39:14.184Z,2.25
2022-11-02T16:41:41.226Z,1.70
2022-11-02T16:44:10.326Z,2.70
2022-11-02T16:46:49.867Z,2.78
2022-11-02T16:49:18.739Z,2.22
2022-11-02T16:51:57.013Z,3.28
2022-11-02T16:54:42.086Z,2.72
2022-11-02T16:57:28.265Z,2.80
2022-11-02T16:59:57.580Z,2.05
2022-11-02T17:02:32.940Z,2.72
2022-11-02T17:05:04.785Z,2.17
2022-11-02T17:07:37.113Z,3.45
2022-11-02T17:10:05.927Z,2.30
2022-11-02T17:12:43.381Z,2.80
2022-11-02T17:15:18.516Z,10.13
2022-11-02T17:17:44.997Z,2.60
2022-11-02T17:20:11.672Z,2.45
2022-11-02T17:22:48.404Z,2.10
2022-11-02T17:25:27.071Z,2.15
2022-11-02T17:27:55.677Z,1.95
2022-11-02T17:30:34.481Z,2.30
2022-11-02T17:33:08.652Z,2.55
2022-11-02T17:35:35.431Z,2.40
2022-11-02T17:38:02.968Z,3.22
2022-11-02T17:40:29.742Z,2.70
2022-11-02T17:42:59.309Z,3.10
2022-11-02T17:45:28.321Z,3.80
2022-11-02T17:47:59.419Z,2.80
2022-11-02T17:50:27.817Z,1.75
2022-11-02T17:52:54.746Z,2.45
2022-11-02T17:55:23.894Z,3.50
2022-11-02T17:57:50.582Z,3.25
2022-11-02T18:00:18.156Z,2.40
2022-11-02T18:02:47.924Z,2.80
2022-11-02T18:05:28.140Z,2.95
2022-11-02T18:07:56.050Z,2.60
2022-11-02T18:10:25.422Z,3.67
2022-11-02T18:12:52.100Z,3.90
2022-11-02T18:15:30.263Z,3.70
2022-11-02T18:17:56.853Z,3.95
2022-11-02T18:20:24.065Z,3.60
2022-11-02T18:22:50.691Z,3.63
2022-11-02T18:25:18.404Z,3.38
2022-11-02T18:27:45.900Z,3.25
2022-11-02T18:30:15.082Z,3.22
2022-11-02T18:35:16.095Z,3.55
2022-11-02T18:37:42.677Z,3.92
2022-11-02T18:40:11.601Z,4.30
2022-11-02T18:42:39.247Z,2.80
2022-11-02T18:45:06.645Z,4.20
2022-11-02T18:47:33.744Z,3.55
2022-11-02T18:50:00.765Z,3.38
2022-11-02T18:52:32.095Z,3.83
2022-11-02T18:55:03.494Z,3.58
2022-11-02T18:57:30.296Z,3.80
2022-11-02T18:59:56.731Z,3.15
2022-11-02T19:02:23.344Z,3.50
2022-11-02T19:04:49.782Z,4.90
2022-11-02T19:07:34.956Z,7.60
2022-11-02T19:10:03.876Z,4.50
2022-11-02T19:12:31.032Z,3.85
2022-11-02T19:14:57.842Z,3.90
2022-11-02T19:17:25.901Z,3.90
2022-11-02T19:19:52.703Z,3.92
2022-11-02T19:22:21.509Z,3.17
2022-11-02T19:24:47.981Z,3.70
2022-11-02T19:27:17.520Z,3.70
2022-11-02T19:29:44.239Z,4.53
2022-11-02T19:32:10.785Z,4.20
2022-11-02T19:34:38.163Z,4.05
2022-11-02T19:37:06.372Z,4.32
2022-11-02T19:39:33.257Z,3.75
2022-11-02T19:41:59.792Z,4.38
2022-11-02T19:44:26.509Z,4.68
2022-11-02T19:46:53.001Z,5.55
2022-11-02T19:49:19.420Z,4.50
2022-11-02T19:51:45.860Z,4.55
2022-11-02T19:54:12.474Z,5.68
2022-11-02T19:56:38.852Z,4.90
2022-11-02T19:59:06.420Z,5.28
2022-11-02T20:01:35.747Z,4.97
2022-11-02T20:04:02.968Z,5.40
2022-11-02T20:06:33.754Z,5.15
2022-11-02T20:09:07.099Z,5.70
2022-11-02T20:11:33.914Z,8.48
2022-11-02T20:14:02.275Z,6.30
2022-11-02T20:16:28.822Z,5.50
2022-11-02T20:18:56.021Z,5.30
2022-11-02T20:21:30.209Z,5.10
2022-11-02T20:24:00.873Z,4.80
2022-11-02T20:26:33.484Z,5.35
2022-11-02T20:29:01.610Z,5.78
2022-11-02T20:31:34.058Z,5.30
2022-11-02T20:34:00.957Z,5.38
2022-11-02T20:36:28.398Z,5.28
2022-11-02T20:38:56.109Z,5.63
2022-11-02T20:41:24.183Z,5.25
2022-11-02T20:43:52.275Z,5.57
2022-11-02T20:46:42.907Z,5.32
2022-11-02T20:49:22.076Z,4.88
2022-11-02T20:51:56.134Z,5.90
2022-11-02T20:54:22.577Z,4.63
2022-11-02T20:56:49.887Z,4.75
2022-11-02T20:59:16.409Z,4.53
2022-11-02T21:01:42.954Z,4.38
2022-11-02T21:04:09.930Z,5.28
2022-11-02T21:06:38.260Z,5.28
2022-11-02T21:09:09.085Z,4.40
2022-11-02T21:11:56.947Z,5.75
2022-11-02T21:14:23.491Z,4.75
2022-11-02T21:16:49.995Z,4.95
2022-11-02T21:19:16.465Z,6.07
2022-11-02T21:21:43.026Z,5.47
2022-11-02T21:24:09.808Z,5.65
2022-11-02T21:26:36.566Z,5.53
2022-11-02T21:29:03.291Z,5.15
2022-11-02T21:31:29.671Z,4.82
2022-11-02T21:33:56.067Z,5.90
2022-11-02T21:36:22.447Z,5.25
2022-11-02T21:38:48.979Z,5.70
2022-11-02T21:41:19.481Z,5.10
2022-11-02T21:43:45.961Z,5.30
2022-11-02T21:46:12.480Z,6.38
2022-11-02T21:48:39.212Z,5.78
2022-11-02T21:51:24.755Z,6.53
2022-11-02T21:53:51.835Z,5.63
2022-11-02T21:56:21.424Z,5.68
2022-11-02T21:58:48.255Z,4.93
2022-11-02T22:01:44.720Z,4.95
2022-11-02T22:04:24.934Z,4.25
2022-11-02T22:06:52.180Z,4.70
2022-11-02T22:09:18.900Z,4.38
2022-11-02T22:11:45.445Z,3.75
2022-11-02T22:14:12.822Z,5.35
2022-11-02T22:16:42.229Z,4.00
2022-11-02T22:19:11.449Z,4.10
2022-11-02T22:21:43.471Z,4.45
2022-11-02T22:24:10.828Z,5.00
2022-11-02T22:26:39.061Z,3.80
2022-11-02T22:29:06.369Z,4.50
2022-11-02T22:31:35.851Z,5.05
2022-11-02T22:34:04.427Z,4.40
2022-11-02T22:36:33.085Z,4.25
2022-11-02T22:39:01.285Z,4.75
2022-11-02T22:41:38.108Z,3.92
2022-11-02T22:44:15.512Z,4.40
2022-11-02T22:46:44.297Z,4.50
2022-11-02T22:49:12.719Z,4.78
2022-11-02T22:51:41.648Z,4.70
2022-11-02T22:54:11.695Z,5.47
2022-11-02T22:56:38.406Z,5.32
2022-11-02T22:59:05.928Z,4.40
2022-11-02T23:01:33.457Z,5.25
2022-11-02T23:04:01.117Z,5.03
2022-11-02T23:06:28.157Z,4.90
2022-11-02T23:08:57.455Z,4.45
2022-11-02T23:11:29.845Z,4.93
2022-11-02T23:14:22.654Z,4.55
2022-11-02T23:16:49.047Z,4.40
2022-11-02T23:19:30.521Z,4.78
2022-11-02T23:25:17.189Z,4.03
2022-11-02T23:28:12.626Z,4.60
2022-11-02T23:30:58.209Z,4.05
2022-11-02T23:33:29.462Z,4.72
2022-11-02T23:36:11.171Z,5.32
2022-11-02T23:41:41.550Z,5.28
2022-11-02T23:44:14.494Z,5.40
2022-11-02T23:46:42.551Z,4.97
2022-11-02T23:49:09.722Z,4.13
2022-11-02T23:51:54.848Z,3.95
2022-11-02T23:54:39.848Z,4.47
2022-11-02T23:57:06.518Z,4.28
2022-11-02T23:59:33.160Z,4.75
